Flight Track Log - Related Links

Times and Time Zones

All times are in EDT time to prevent confusion due to time zone crossing. See the WBR2634 flight status page for this flight to view local times or setup timezone preferences in your user account.

Time Position Orientation Groundspeed Altitude Reporting Facility
EDT Latitude Longitude Course Direction KTS MPH feet Rate Location/Type
Fri 05:35:58 PM 40.8097 -91.0889 75° East 138 159 2,400  Level Chicago Center
Fri 05:37:00 PM 40.8197 -91.0408 75° East 116 133 3,600 1,065 Climbing Chicago Center
Fri 05:38:02 PM 40.8319 -91.0017 68° East 116 133 4,600 968 Climbing Chicago Center
Fri 05:39:04 PM 40.8433 -90.9639 68° East 113 130 5,600 871 Climbing Chicago Center
Fri 05:40:06 PM 40.8569 -90.9256 65° Northeast 112 129 6,400 720 Climbing Chicago Center
Fri 05:41:09 PM 40.8700 -90.8758 71° East 134 154 7,100 672 Climbing Chicago Center
Fri 05:42:11 PM 40.8911 -90.8300 59° Northeast 143 165 7,800 726 Climbing Chicago Center
Fri 05:43:13 PM 40.9078 -90.7789 67° East 150 173 8,600 629 Climbing Chicago Center
Fri 05:44:15 PM 40.9286 -90.7161 66° East 155 178 9,100 242 Climbing Chicago Center
Fri 05:45:17 PM 40.9453 -90.6553 70° East 173 199 9,100  Level Chicago Center
Fri 05:46:19 PM 40.9678 -90.5919 65° Northeast 186 214 9,100  Level Chicago Center
Fri 05:48:23 PM 41.0117 -90.4683 65° Northeast 184 212 9,100 -32 Level Chicago Center
Fri 05:49:25 PM 41.0325 -90.4047 67° East 187 215 9,000  Descending Chicago Center
Fri 05:50:28 PM 41.0572 -90.3314 66° East 183 211 9,100  Climbing Chicago Center
Fri 05:51:30 PM 41.0772 -90.2697 67° East 181 208 9,000  Descending Chicago Center
Fri 05:52:32 PM 41.0975 -90.2106 66° East 178 205 9,100 48 Climbing Chicago Center
Fri 05:53:34 PM 41.1175 -90.1511 66° East 178 205 9,100  Level Chicago Center
Fri 05:54:36 PM 41.1383 -90.0900 66° East 180 207 9,100  Level Chicago Center
Fri 05:55:38 PM 41.1614 -90.0311 63° Northeast 179 206 9,100  Level Chicago Center
Fri 05:56:40 PM 41.1806 -89.9675 68° East 184 212 9,100  Level Chicago Center
Fri 05:57:42 PM 41.2044 -89.8925 67° East 183 211 9,100  Level Chicago Center
Fri 05:58:44 PM 41.2261 -89.8328 64° Northeast 181 208 9,100  Level Chicago Center
Fri 05:59:46 PM 41.2458 -89.7711 67° East 180 207 9,100  Level Chicago Center
Fri 06:00:49 PM 41.2669 -89.7097 65° Northeast 181 208 9,100 -192 Level Chicago Center
Fri 06:01:51 PM 41.2861 -89.6472 68° East 183 211 8,700 -435 Descending Chicago Center
Fri 06:02:53 PM 41.3058 -89.5844 67° East 183 211 8,200 -339 Descending Chicago Center
Fri 06:03:55 PM 41.3297 -89.5125 66° East 179 206 8,000 -97 Descending Chicago Center
Fri 06:04:57 PM 41.3497 -89.4533 66° East 176 203 8,000  Level Chicago Center
Fri 06:05:59 PM 41.3700 -89.3947 65° Northeast 175 201 8,000  Level Chicago Center
Fri 06:07:01 PM 41.3881 -89.3361 68° East 173 199 8,000  Level Chicago Center
Fri 06:08:03 PM 41.4053 -89.2778 68° East 169 194 8,000  Level Chicago Center
Fri 06:09:05 PM 41.4225 -89.2197 68° East 168 193 8,000  Level Chicago Center
Fri 06:10:07 PM 41.4444 -89.1561 65° Northeast 172 198 8,000  Level Chicago Center
Fri 06:11:10 PM 41.4603 -89.1000 69° East 165 190 8,000  Level Chicago Center
Fri 06:12:12 PM 41.4833 -89.0317 66° East 169 194 8,000  Level Chicago Center
Fri 06:13:14 PM 41.5011 -88.9769 67° East 163 188 8,000  Level Chicago Center
Fri 06:14:16 PM 41.5183 -88.9214 67° East 163 188 8,000  Level Chicago Center
Fri 06:15:18 PM 41.5403 -88.8661 62° Northeast 168 193 8,000  Level Chicago Center
Fri 06:16:20 PM 41.5600 -88.8092 65° Northeast 169 194 8,000  Level Chicago Center
Fri 06:17:22 PM 41.5800 -88.7389 69° East 169 194 8,000  Level Chicago Center
Fri 06:18:24 PM 41.5969 -88.6789 69° East 172 198 8,000  Level Chicago Center
Fri 06:19:26 PM 41.6128 -88.6214 70° East 169 194 8,000  Level Chicago Center
Fri 06:20:28 PM 41.6369 -88.5678 59° Northeast 169 194 8,000 48 Level Chicago Center
Fri 06:21:31 PM 41.6617 -88.5156 58° Northeast 167 192 8,100 48 Climbing Chicago Center
Fri 06:22:33 PM 41.6889 -88.4636 55° Northeast 171 197 8,100 -48 Level Chicago Center
Fri 06:23:35 PM 41.6997 -88.3814 80° East 187 215 8,000 -145 Descending Chicago Center
Fri 06:24:37 PM 41.7181 -88.3175 69° East 189 217 7,800 -290 Descending Chicago Center
Fri 06:25:39 PM 41.7456 -88.2564 59° Northeast 192 221 7,400 -387 Descending Chicago Center
Fri 06:26:41 PM 41.7761 -88.1956 56° Northeast 197 227 7,000 -194 Descending Chicago Center
Fri 06:27:43 PM 41.8044 -88.1381 57° Northeast 189 217 7,000  Level Chicago Center
Fri 06:28:45 PM 41.8289 -88.0825 59° Northeast 177 204 7,000 48 Level Chicago Center
Fri 06:29:47 PM 41.8586 -88.0117 61° Northeast 180 207 7,100 48 Climbing Chicago Center
Fri 06:30:49 PM 41.8781 -87.9500 67° East 180 207 7,100 -48 Level Chicago Center
Fri 06:31:52 PM 41.8847 -87.8811 83° East 184 212 7,000 -48 Descending Chicago Center
Fri 06:32:54 PM 41.8903 -87.8128 84° East 186 214 7,000 -387 Level Chicago Center
Fri 06:33:56 PM 41.8933 -87.7400 87° East 193 222 6,200 -726 Descending Chicago Center
Fri 06:34:58 PM 41.9178 -87.6667 66° East 203 234 5,500 -871 Descending Chicago Center
Fri 06:36:00 PM 41.9617 -87.6911 338° Northwest 184 212 4,400 -1,308 Descending Chicago Center
Fri 06:37:11 PM 41.9667 -87.7667 275° West 156 180 2,600 -1,191 Descending Chicago TRACON
Fri 06:38:11 PM 41.9667 -87.8167 270° West 151 174 1,800 -850 Descending Chicago TRACON
Fri 06:39:11 PM 41.9667 -87.8667 270° West 148 170 900 -900 Descending Chicago TRACON
Fri 06:41:00 PM 41.9667 -87.9000 270° West  Level FlightAware Approximate

Login

Don't have an account? Register now (free) for customized features, flight alerts, and more!